createdAt,value
2022-10-04T03:20:39.050Z,99474.00
2022-10-04T03:23:51.553Z,99484.03
2022-10-04T03:27:07.012Z,99467.50
2022-10-04T03:30:20.132Z,99474.44
2022-10-04T03:33:31.552Z,99474.44
2022-10-04T03:36:44.371Z,99471.88
2022-10-04T03:39:56.863Z,99472.59
2022-10-04T03:43:07.946Z,99484.59
2022-10-04T03:46:22.944Z,99479.84
2022-10-04T03:49:37.461Z,99472.38
2022-10-04T03:52:54.354Z,99478.38
2022-10-04T03:56:13.615Z,99481.81
2022-10-04T03:59:26.463Z,99479.84
2022-10-04T04:02:46.190Z,99483.47
2022-10-04T04:06:01.281Z,99490.00
2022-10-04T04:09:22.983Z,99498.38
2022-10-04T04:12:41.116Z,99489.69
2022-10-04T04:15:52.663Z,99484.25
2022-10-04T04:19:06.452Z,99477.69
2022-10-04T04:22:19.372Z,99482.78
2022-10-04T04:25:40.074Z,99484.25
2022-10-04T04:28:53.916Z,99485.31
2022-10-04T04:32:09.765Z,99479.84
2022-10-04T04:35:26.320Z,99480.72
2022-10-04T04:38:56.854Z,99483.47
2022-10-04T04:42:19.606Z,99479.25
2022-10-04T04:45:33.260Z,99473.91
2022-10-04T04:48:46.368Z,99468.84
2022-10-04T04:51:59.363Z,99461.38
2022-10-04T04:55:19.432Z,99455.38
2022-10-04T04:58:35.808Z,99455.13
2022-10-04T06:56:36.350Z,99478.41
2022-10-04T07:00:03.035Z,99470.06
2022-10-04T07:03:17.748Z,99468.56
2022-10-04T07:06:33.074Z,99473.13
2022-10-04T07:09:45.876Z,99462.34
2022-10-04T07:13:12.151Z,99462.50
2022-10-04T07:16:34.256Z,99469.59
2022-10-04T07:19:50.399Z,99463.28
2022-10-04T07:23:07.221Z,99476.22
2022-10-04T07:26:26.873Z,99469.00
2022-10-04T07:29:45.942Z,99476.81
2022-10-04T07:32:58.398Z,99472.13
2022-10-04T07:36:13.294Z,99457.44
2022-10-04T07:39:28.061Z,99449.66
2022-10-04T07:42:49.677Z,99456.59
2022-10-04T07:46:08.143Z,99448.88
2022-10-04T07:49:20.603Z,99450.81
2022-10-04T07:52:48.903Z,99445.81
2022-10-04T07:56:08.907Z,99447.72
2022-10-04T07:59:36.706Z,99441.88
2022-10-04T08:03:12.678Z,99441.66
2022-10-04T08:06:32.407Z,99436.13
2022-10-04T08:09:54.226Z,99439.91
2022-10-04T08:13:22.350Z,99427.97
2022-10-04T08:16:38.574Z,99433.91
2022-10-04T08:20:02.990Z,99438.28
2022-10-04T08:23:29.501Z,99433.63
2022-10-04T08:26:50.691Z,99431.31
2022-10-04T08:30:11.098Z,99423.03
2022-10-04T08:33:30.638Z,99428.88
2022-10-04T08:36:57.539Z,99413.09
2022-10-04T08:40:34.890Z,99418.75
2022-10-04T08:44:13.227Z,99427.44
2022-10-04T08:47:59.880Z,99424.34
2022-10-04T08:51:34.153Z,99416.53
2022-10-04T08:55:11.935Z,99409.13
2022-10-04T08:58:42.234Z,99392.94
2022-10-04T09:02:18.747Z,99400.34
2022-10-04T09:05:53.703Z,99402.16
2022-10-04T09:09:39.994Z,99387.28
2022-10-04T09:13:05.754Z,99388.16
2022-10-04T09:16:19.451Z,99388.41
2022-10-04T09:19:49.447Z,99386.84
2022-10-04T09:23:13.394Z,99371.31
2022-10-04T09:26:25.512Z,99370.00
2022-10-04T09:29:55.853Z,99369.66
2022-10-04T09:33:27.212Z,99368.16
2022-10-04T09:36:53.019Z,99368.47
2022-10-04T09:40:34.451Z,99365.16
2022-10-04T09:44:06.041Z,99370.41
2022-10-04T09:47:37.698Z,99377.25
2022-10-04T09:51:09.962Z,99375.13
2022-10-04T09:54:41.147Z,99366.81
2022-10-04T09:58:13.908Z,99365.88
2022-10-04T10:01:31.667Z,99355.47
2022-10-04T10:04:53.834Z,99362.81
2022-10-04T10:08:18.799Z,99360.63
2022-10-04T10:11:51.593Z,99361.25
2022-10-04T10:15:16.922Z,99354.41
2022-10-04T10:40:41.316Z,99351.94
2022-10-04T10:44:08.095Z,99343.72
2022-10-04T10:47:46.161Z,99354.69
2022-10-04T10:51:03.734Z,99351.78
2022-10-04T10:54:35.005Z,99363.88
2022-10-04T10:58:08.776Z,99365.13
2022-10-04T11:01:43.231Z,99368.47
2022-10-04T11:09:11.030Z,99369.38
2022-10-04T11:12:42.351Z,99368.41
2022-10-04T11:16:19.565Z,99372.41
2022-10-04T11:19:54.586Z,99364.28
2022-10-04T11:23:31.252Z,99350.38
2022-10-04T11:27:01.449Z,99354.91
2022-10-04T11:30:23.337Z,99351.44
2022-10-04T11:33:58.143Z,99349.91
2022-10-04T11:37:17.126Z,99341.16
2022-10-04T11:40:40.973Z,99340.41
2022-10-04T11:44:15.802Z,99331.81
2022-10-04T11:47:47.853Z,99328.72
2022-10-04T11:51:18.356Z,99324.81
2022-10-04T11:54:54.832Z,99321.59
2022-10-04T11:58:14.617Z,99323.38
2022-10-04T12:01:47.677Z,99321.03
2022-10-04T12:05:18.111Z,99323.97
2022-10-04T12:08:34.030Z,99315.44
2022-10-04T12:12:20.984Z,99314.41
2022-10-04T12:15:41.866Z,99308.59
2022-10-04T12:19:19.779Z,99304.56
2022-10-04T12:22:46.715Z,99302.63
2022-10-04T12:26:22.120Z,99299.47
2022-10-04T12:30:05.864Z,99292.47
2022-10-04T12:33:23.823Z,99303.06
2022-10-04T12:36:50.850Z,99296.84
2022-10-04T12:40:20.431Z,99304.44
2022-10-04T12:43:38.641Z,99294.91
2022-10-04T12:46:58.221Z,99295.81
2022-10-04T12:50:18.366Z,99280.81
2022-10-04T12:53:39.368Z,99277.91
2022-10-04T12:57:00.404Z,99277.72
2022-10-04T13:00:20.278Z,99272.59
2022-10-04T13:03:41.093Z,99272.00
2022-10-04T13:07:08.725Z,99271.69
2022-10-04T13:10:31.514Z,99271.97
2022-10-04T13:14:02.020Z,99271.25
2022-10-04T13:17:35.390Z,99272.31
2022-10-04T13:20:54.803Z,99262.00
2022-10-04T13:24:09.105Z,99260.19
2022-10-04T13:27:25.137Z,99258.69
2022-10-04T13:30:48.484Z,99262.59
2022-10-04T13:34:12.603Z,99265.72
2022-10-04T13:37:35.535Z,99260.16
2022-10-04T13:41:02.565Z,99252.66
2022-10-04T13:44:31.362Z,99256.84
2022-10-04T13:47:57.878Z,99250.28
2022-10-04T13:51:24.824Z,99249.16
2022-10-04T13:54:52.653Z,99248.19
2022-10-04T13:58:16.125Z,99247.59
2022-10-04T14:01:46.512Z,99247.34
2022-10-04T14:05:25.931Z,99251.44
2022-10-04T14:08:57.528Z,99248.47
2022-10-04T14:12:38.563Z,99247.34
2022-10-04T14:16:01.563Z,99242.56
2022-10-04T14:19:40.223Z,99250.31
2022-10-04T14:23:10.127Z,99236.75
2022-10-04T14:26:37.722Z,99241.22
2022-10-04T14:30:07.986Z,99232.44
2022-10-04T14:33:43.355Z,99233.03
2022-10-04T14:37:10.602Z,99233.63
2022-10-04T14:40:46.402Z,99221.56
2022-10-04T14:44:25.419Z,99217.19
2022-10-04T14:48:08.991Z,99214.44
2022-10-04T14:51:32.204Z,99217.56
2022-10-04T14:54:52.325Z,99221.34
2022-10-04T14:58:18.349Z,99218.69
2022-10-04T15:01:29.828Z,99222.09
2022-10-04T15:05:05.395Z,99213.16
2022-10-04T15:08:39.262Z,99204.38
2022-10-04T15:12:25.623Z,99218.38
2022-10-04T15:15:41.976Z,99207.63
2022-10-04T15:18:58.687Z,99202.13
2022-10-04T15:22:16.611Z,99191.41
2022-10-04T15:25:40.338Z,99197.00
2022-10-04T15:29:03.217Z,99195.69
2022-10-04T15:32:30.710Z,99207.53
2022-10-04T15:35:55.179Z,99207.09
2022-10-04T15:39:24.063Z,99200.88
2022-10-04T15:42:35.918Z,99198.03
2022-10-04T15:46:03.043Z,99193.47
2022-10-04T15:49:25.746Z,99189.63
2022-10-04T15:52:54.545Z,99193.28
2022-10-04T15:56:20.927Z,99195.78
2022-10-04T15:59:44.265Z,99196.16
2022-10-04T16:03:09.316Z,99195.81
2022-10-04T16:06:26.299Z,99188.31
2022-10-04T16:09:45.136Z,99183.50
2022-10-04T16:13:10.694Z,99182.25
2022-10-04T16:16:36.406Z,99178.88
2022-10-04T16:20:02.245Z,99169.22
2022-10-04T16:23:29.452Z,99157.06
2022-10-04T16:30:34.569Z,99172.22
2022-10-04T16:33:54.973Z,99179.88
2022-10-04T16:37:16.357Z,99166.97
2022-10-04T16:40:36.321Z,99166.38
2022-10-04T16:43:54.759Z,99174.19
2022-10-04T16:47:20.299Z,99172.53
2022-10-04T16:50:57.798Z,99184.41
2022-10-04T16:54:31.189Z,99182.75
2022-10-04T16:57:43.511Z,99193.19
2022-10-04T17:01:32.128Z,99198.25
2022-10-04T17:04:55.334Z,99206.78
2022-10-04T17:08:24.921Z,99218.22
2022-10-04T17:11:44.307Z,99214.00
2022-10-04T17:15:06.961Z,99213.38
2022-10-04T17:18:27.623Z,99220.88
2022-10-04T17:21:46.027Z,99220.31
2022-10-04T17:25:03.358Z,99220.16
2022-10-04T17:28:27.864Z,99233.19
2022-10-04T17:31:46.340Z,99231.00
2022-10-04T17:35:15.055Z,99239.44
2022-10-04T17:38:36.506Z,99244.47
2022-10-04T17:42:02.331Z,99245.16
2022-10-04T17:45:29.104Z,99246.31
2022-10-04T17:48:59.688Z,99254.84
2022-10-04T17:52:28.393Z,99249.00
2022-10-04T17:55:49.740Z,99250.34
2022-10-04T17:59:00.738Z,99252.38
2022-10-04T18:02:19.090Z,99256.31
2022-10-04T18:05:36.204Z,99266.72
2022-10-04T18:08:56.472Z,99266.03
2022-10-04T18:12:17.569Z,99262.00
2022-10-04T18:15:34.251Z,99262.69
2022-10-04T18:18:48.009Z,99261.31
2022-10-04T18:22:06.297Z,99257.03
2022-10-04T18:25:23.905Z,99262.38
2022-10-04T18:28:37.945Z,99262.13
2022-10-04T18:31:51.240Z,99262.84
2022-10-04T18:35:22.846Z,99252.22
2022-10-04T18:38:39.183Z,99255.22
2022-10-04T18:42:03.713Z,99262.91
2022-10-04T18:45:26.215Z,99271.91
2022-10-04T18:48:41.111Z,99266.28
2022-10-04T18:52:03.423Z,99276.88
2022-10-04T18:55:29.950Z,99282.84
2022-10-04T18:59:09.786Z,99288.81
2022-10-04T19:02:36.654Z,99281.00
2022-10-04T19:06:01.699Z,99288.88
2022-10-04T19:09:24.849Z,99298.94
2022-10-04T19:12:49.319Z,99299.88
2022-10-04T19:16:15.950Z,99294.34
2022-10-04T19:19:58.946Z,99297.94
2022-10-04T19:23:27.370Z,99301.06
2022-10-04T19:26:42.641Z,99299.28
2022-10-04T19:30:10.579Z,99308.53
2022-10-04T19:33:28.298Z,99317.66
2022-10-04T19:36:50.165Z,99310.22
2022-10-04T19:40:10.920Z,99310.59
2022-10-04T19:43:32.158Z,99322.81
2022-10-04T19:46:48.553Z,99328.31
2022-10-04T19:50:07.073Z,99331.13
2022-10-04T19:53:21.499Z,99335.50
2022-10-04T19:56:37.636Z,99331.13
2022-10-04T19:59:51.254Z,99339.81
2022-10-04T20:03:02.627Z,99333.38
2022-10-04T20:06:23.035Z,99333.63
2022-10-04T20:09:53.246Z,99333.38
